createdAt,value
2017-08-28T00:02:18.900Z,5.77
2017-08-28T00:04:45.473Z,7.77
2017-08-28T00:07:12.040Z,4.93
2017-08-28T00:09:38.638Z,5.30
2017-08-28T00:12:05.214Z,8.17
2017-08-28T00:14:31.787Z,10.40
2017-08-28T00:16:58.381Z,5.03
2017-08-28T00:19:24.949Z,7.63
2017-08-28T00:21:51.516Z,6.77
2017-08-28T00:24:18.127Z,6.00
2017-08-28T00:26:44.704Z,8.10
2017-08-28T00:29:11.281Z,5.03
2017-08-28T00:31:37.870Z,6.13
2017-08-28T00:34:04.437Z,7.83
2017-08-28T00:36:31.004Z,7.40
2017-08-28T00:38:57.593Z,7.37
2017-08-28T00:41:24.241Z,7.70
2017-08-28T00:43:50.818Z,5.37
2017-08-28T00:46:17.409Z,5.40
2017-08-28T00:48:43.984Z,6.87
2017-08-28T00:51:10.557Z,5.50
2017-08-28T00:53:37.157Z,8.10
2017-08-28T00:56:03.992Z,9.77
2017-08-28T00:58:30.592Z,5.63
2017-08-28T01:00:57.177Z,4.93
2017-08-28T01:03:23.750Z,8.03
2017-08-28T01:05:50.316Z,6.37
2017-08-28T01:08:16.900Z,8.10
2017-08-28T01:10:43.469Z,5.37
2017-08-28T01:13:10.040Z,7.60
2017-08-28T01:15:36.625Z,9.33
2017-08-28T01:18:03.198Z,6.60
2017-08-28T01:20:29.769Z,5.30
2017-08-28T01:22:56.357Z,5.87
2017-08-28T01:25:22.932Z,5.67
2017-08-28T01:27:49.514Z,4.97
2017-08-28T01:30:16.121Z,6.50
2017-08-28T01:32:42.676Z,5.30
2017-08-28T01:35:09.256Z,5.57
2017-08-28T01:37:35.838Z,6.63
2017-08-28T01:40:02.409Z,6.00
2017-08-28T01:42:28.981Z,6.53
2017-08-28T01:44:55.565Z,7.20
2017-08-28T01:47:22.132Z,5.03
2017-08-28T01:49:48.709Z,7.63
2017-08-28T01:52:15.296Z,6.97
2017-08-28T01:54:41.874Z,5.67
2017-08-28T01:57:08.436Z,5.80
2017-08-28T01:59:35.021Z,4.97
2017-08-28T02:02:01.593Z,7.43
2017-08-28T02:04:28.167Z,5.47
2017-08-28T02:06:54.810Z,5.87
2017-08-28T02:09:21.369Z,5.90
2017-08-28T02:11:47.942Z,5.93
2017-08-28T02:14:14.528Z,7.20
2017-08-28T02:16:41.104Z,5.93
2017-08-28T02:19:07.690Z,13.63
2017-08-28T02:21:34.272Z,8.57
2017-08-28T02:24:00.861Z,7.50
2017-08-28T02:26:27.431Z,6.80
2017-08-28T02:28:54.017Z,11.10
2017-08-28T02:31:20.592Z,5.80
2017-08-28T02:33:47.169Z,7.80
2017-08-28T02:36:13.765Z,5.70
2017-08-28T02:38:40.336Z,8.00
2017-08-28T02:41:06.912Z,8.93
2017-08-28T02:43:33.570Z,6.03
2017-08-28T02:46:00.147Z,9.43
2017-08-28T02:48:26.709Z,5.70
2017-08-28T02:50:53.297Z,5.40
2017-08-28T02:53:19.877Z,10.07
2017-08-28T02:55:46.449Z,5.73
2017-08-28T02:58:13.035Z,5.80
2017-08-28T03:00:39.625Z,8.43
2017-08-28T03:03:06.192Z,9.17
2017-08-28T03:05:32.796Z,6.00
2017-08-28T03:07:59.377Z,6.73
2017-08-28T03:10:25.945Z,5.70
2017-08-28T03:12:52.532Z,7.17
2017-08-28T03:15:19.100Z,5.70
2017-08-28T03:17:46.057Z,6.27
2017-08-28T03:20:12.766Z,6.60
2017-08-28T03:22:39.318Z,8.43
2017-08-28T03:25:05.900Z,9.07
2017-08-28T03:27:32.484Z,9.80
2017-08-28T03:29:59.065Z,11.90
2017-08-28T03:32:25.644Z,9.87
2017-08-28T03:34:52.229Z,8.47
2017-08-28T03:37:18.906Z,11.90
2017-08-28T03:39:45.476Z,6.87
2017-08-28T03:42:12.063Z,6.70
2017-08-28T03:44:38.636Z,8.43
2017-08-28T03:47:05.213Z,7.60
2017-08-28T03:49:31.808Z,9.53
2017-08-28T03:51:58.384Z,15.60
2017-08-28T03:54:24.976Z,6.10
2017-08-28T03:56:51.680Z,10.00
2017-08-28T03:59:18.253Z,6.27
2017-08-28T04:01:44.822Z,7.07
2017-08-28T04:04:11.416Z,7.80
2017-08-28T04:06:37.994Z,7.90
2017-08-28T04:09:04.578Z,7.93
2017-08-28T04:11:31.227Z,7.83
2017-08-28T04:13:57.781Z,8.80
2017-08-28T04:16:24.352Z,7.80
2017-08-28T04:18:50.932Z,6.30
2017-08-28T04:21:17.517Z,6.60
2017-08-28T04:23:44.088Z,9.83
2017-08-28T04:26:10.688Z,11.00
2017-08-28T04:28:37.273Z,11.57
2017-08-28T04:31:03.897Z,14.17
2017-08-28T04:33:30.485Z,9.13
2017-08-28T04:35:57.061Z,7.77
2017-08-28T04:38:23.648Z,9.20
2017-08-28T04:40:50.237Z,8.53
2017-08-28T04:43:16.806Z,7.27
2017-08-28T04:45:43.373Z,6.83
2017-08-28T04:48:09.976Z,15.17
2017-08-28T04:50:36.557Z,6.67
2017-08-28T04:53:03.124Z,6.30
2017-08-28T04:55:29.712Z,9.10
2017-08-28T04:57:56.282Z,8.83
2017-08-28T05:00:22.910Z,5.90
2017-08-28T05:02:49.504Z,7.93
2017-08-28T05:05:16.085Z,8.73
2017-08-28T05:07:42.669Z,11.03
2017-08-28T05:10:09.280Z,11.20
2017-08-28T05:12:35.844Z,7.77
2017-08-28T05:15:02.429Z,13.00
2017-08-28T05:17:29.009Z,8.53
2017-08-28T05:19:55.583Z,9.13
2017-08-28T05:22:22.177Z,7.33
2017-08-28T05:24:48.776Z,10.27
2017-08-28T05:27:15.351Z,7.33
2017-08-28T05:29:41.920Z,7.37
2017-08-28T05:32:08.532Z,10.30
2017-08-28T05:34:35.100Z,9.60
2017-08-28T05:37:01.672Z,8.63
2017-08-28T05:39:28.328Z,10.73
2017-08-28T05:41:54.898Z,9.33
2017-08-28T05:44:23.689Z,11.73
2017-08-28T05:46:50.452Z,9.73
2017-08-28T05:49:17.029Z,10.23
2017-08-28T05:51:43.595Z,7.73
2017-08-28T05:54:10.188Z,11.53
2017-08-28T05:56:36.768Z,11.60
2017-08-28T05:59:03.341Z,8.20
2017-08-28T06:01:29.954Z,7.13
2017-08-28T06:03:56.527Z,8.97
2017-08-28T06:06:23.096Z,9.00
2017-08-28T06:08:49.685Z,9.83
2017-08-28T06:11:16.285Z,10.70
2017-08-28T06:13:42.865Z,6.53
2017-08-28T06:16:09.457Z,7.93
2017-08-28T06:18:36.049Z,7.60
2017-08-28T06:21:02.656Z,6.70
2017-08-28T06:23:29.240Z,7.67
2017-08-28T06:25:55.818Z,7.30
2017-08-28T06:28:22.386Z,6.30
2017-08-28T06:30:48.972Z,5.70
2017-08-28T06:33:15.540Z,6.00
2017-08-28T06:35:42.124Z,5.47
2017-08-28T06:38:08.733Z,9.97
2017-08-28T06:40:35.300Z,4.90
2017-08-28T06:43:01.881Z,4.73
2017-08-28T06:45:28.465Z,6.33
2017-08-28T06:47:55.036Z,5.10
2017-08-28T06:50:21.608Z,5.13
2017-08-28T06:52:48.237Z,5.90
2017-08-28T06:55:14.814Z,5.50
2017-08-28T06:57:41.380Z,5.00
2017-08-28T07:00:07.969Z,4.97
2017-08-28T07:02:34.540Z,6.27
2017-08-28T07:05:01.112Z,6.47
2017-08-28T07:07:27.703Z,5.13
2017-08-28T07:09:54.336Z,5.83
2017-08-28T07:12:31.218Z,10.73
2017-08-28T07:14:57.781Z,4.43
2017-08-28T07:17:30.935Z,4.80
2017-08-28T07:19:57.504Z,6.23
2017-08-28T07:22:24.084Z,4.67
2017-08-28T07:24:50.677Z,5.57
2017-08-28T07:27:17.249Z,5.50
2017-08-28T07:29:43.820Z,4.63
2017-08-28T07:32:10.406Z,6.30
2017-08-28T07:34:36.984Z,4.73
2017-08-28T07:37:03.563Z,5.27
2017-08-28T07:39:30.153Z,7.30
2017-08-28T07:41:56.721Z,8.80
2017-08-28T07:44:23.314Z,5.60
2017-08-28T07:46:49.901Z,6.17
2017-08-28T07:49:16.476Z,3.83
2017-08-28T07:51:43.064Z,4.30
2017-08-28T07:54:09.648Z,7.33
2017-08-28T07:56:36.221Z,4.60
2017-08-28T07:59:02.797Z,4.33
2017-08-28T08:01:29.384Z,4.47
2017-08-28T08:03:55.956Z,4.77
2017-08-28T08:06:22.545Z,4.73
2017-08-28T08:08:49.196Z,4.97
2017-08-28T08:11:15.768Z,4.67
2017-08-28T08:13:42.353Z,7.73
2017-08-28T08:16:08.944Z,5.30
2017-08-28T08:18:35.576Z,5.37
2017-08-28T08:21:02.156Z,4.70
2017-08-28T08:23:28.757Z,8.73
2017-08-28T08:25:55.338Z,4.70
2017-08-28T08:28:21.905Z,5.43
2017-08-28T08:30:48.485Z,5.23
2017-08-28T08:33:15.110Z,7.13
2017-08-28T08:35:41.697Z,4.73
2017-08-28T08:38:08.325Z,4.97
2017-08-28T08:40:34.957Z,5.10
2017-08-28T08:43:01.556Z,4.57
2017-08-28T08:45:28.148Z,7.00
2017-08-28T08:47:54.717Z,4.40
2017-08-28T08:50:21.299Z,4.33
2017-08-28T08:52:47.880Z,4.40
2017-08-28T08:55:14.456Z,4.90
2017-08-28T08:57:41.063Z,4.40
2017-08-28T09:00:07.649Z,4.60
2017-08-28T09:02:34.225Z,4.23
2017-08-28T09:05:00.820Z,7.80
2017-08-28T09:07:27.449Z,4.30
2017-08-28T09:09:54.024Z,5.50
2017-08-28T09:12:20.608Z,9.23
2017-08-28T09:14:47.220Z,4.23
2017-08-28T09:17:13.800Z,6.93
2017-08-28T09:19:40.409Z,4.63
2017-08-28T09:22:06.997Z,5.37
2017-08-28T09:24:33.642Z,4.63
2017-08-28T09:27:00.205Z,5.23
2017-08-28T09:29:26.799Z,15.10
2017-08-28T09:31:53.376Z,5.03
2017-08-28T09:34:19.956Z,5.33
2017-08-28T09:36:46.546Z,5.47
2017-08-28T09:39:13.120Z,5.70
2017-08-28T09:41:39.742Z,5.00
2017-08-28T09:44:06.305Z,7.73
2017-08-28T09:46:32.881Z,6.60
2017-08-28T09:48:59.452Z,5.40
2017-08-28T09:51:26.044Z,6.60
2017-08-28T09:53:52.628Z,6.63
2017-08-28T09:56:19.205Z,6.00
2017-08-28T09:58:45.836Z,5.60
2017-08-28T10:01:13.241Z,8.23
2017-08-28T10:03:39.842Z,7.33
2017-08-28T10:06:06.428Z,5.00
2017-08-28T10:08:33.003Z,7.07
2017-08-28T10:10:59.574Z,7.33
2017-08-28T10:13:26.199Z,7.50
2017-08-28T10:15:52.771Z,5.67
2017-08-28T10:18:19.350Z,5.53
2017-08-28T10:20:45.933Z,8.70
2017-08-28T10:23:12.502Z,5.87
2017-08-28T10:25:39.077Z,8.33
2017-08-28T10:28:05.699Z,6.33
2017-08-28T10:30:32.257Z,6.70
2017-08-28T10:32:58.832Z,6.87
2017-08-28T10:35:25.444Z,7.87
2017-08-28T10:37:52.019Z,8.30
2017-08-28T10:40:18.601Z,7.20
2017-08-28T10:42:45.185Z,8.80
2017-08-28T10:45:11.760Z,10.67
2017-08-28T10:47:38.337Z,10.50
2017-08-28T10:50:04.970Z,10.37
2017-08-28T10:52:31.534Z,7.60
2017-08-28T10:54:58.100Z,19.63
2017-08-28T10:57:24.714Z,9.00
2017-08-28T10:59:51.292Z,10.40
2017-08-28T11:02:17.873Z,10.73
2017-08-28T11:04:44.468Z,10.87
2017-08-28T11:07:11.046Z,13.50
2017-08-28T11:09:37.624Z,8.37
2017-08-28T11:12:04.208Z,9.93
2017-08-28T11:14:30.801Z,11.30
2017-08-28T11:16:57.380Z,10.30
2017-08-28T11:19:23.970Z,15.00
2017-08-28T11:21:50.554Z,8.80
2017-08-28T11:24:17.128Z,9.03
2017-08-28T11:26:43.721Z,9.97
2017-08-28T11:29:10.321Z,9.87
2017-08-28T11:31:36.889Z,8.90
2017-08-28T11:34:03.483Z,10.97
2017-08-28T11:36:30.100Z,11.70
2017-08-28T11:38:56.687Z,11.83
2017-08-28T11:41:23.283Z,9.63
2017-08-28T11:43:49.893Z,11.53
2017-08-28T11:46:16.489Z,13.00
2017-08-28T11:48:43.099Z,11.27
2017-08-28T11:51:09.709Z,11.20
2017-08-28T11:53:36.413Z,10.10
2017-08-28T11:56:03.033Z,11.93
2017-08-28T11:58:29.613Z,12.20
2017-08-28T12:00:56.197Z,12.97
2017-08-28T12:03:22.813Z,10.10
2017-08-28T12:05:49.457Z,12.03
2017-08-28T12:08:16.056Z,10.13
2017-08-28T12:10:42.637Z,15.50
2017-08-28T12:13:09.232Z,10.80
2017-08-28T12:15:35.815Z,10.47
2017-08-28T12:18:02.402Z,12.80
2017-08-28T12:20:28.985Z,11.03
2017-08-28T12:22:55.601Z,12.03
2017-08-28T12:25:22.198Z,12.57
2017-08-28T12:27:48.785Z,11.67
2017-08-28T12:30:15.368Z,10.13
2017-08-28T12:32:41.961Z,9.83
2017-08-28T12:35:08.548Z,10.10
2017-08-28T12:37:35.129Z,9.00
2017-08-28T12:40:01.769Z,11.20
2017-08-28T12:42:28.381Z,11.13
2017-08-28T12:44:54.953Z,9.50
2017-08-28T12:47:21.553Z,12.53
2017-08-28T12:49:48.212Z,13.07
2017-08-28T12:52:14.820Z,10.97
2017-08-28T12:54:41.468Z,11.63
2017-08-28T12:57:08.102Z,11.13
2017-08-28T12:59:34.728Z,10.13
2017-08-28T13:02:01.344Z,9.40
2017-08-28T13:04:27.931Z,13.07
2017-08-28T13:06:55.409Z,10.70
2017-08-28T13:09:22.021Z,15.47
2017-08-28T13:11:48.606Z,10.13
2017-08-28T13:14:15.187Z,9.70
2017-08-28T13:16:42.497Z,11.37
2017-08-28T13:19:09.085Z,9.90
2017-08-28T13:21:35.713Z,11.87
2017-08-28T13:24:02.433Z,10.20
2017-08-28T13:26:29.000Z,9.57
2017-08-28T13:28:55.579Z,10.13
2017-08-28T13:31:22.169Z,12.13
2017-08-28T13:33:48.754Z,10.17
2017-08-28T13:36:15.327Z,10.33
2017-08-28T13:38:41.912Z,11.53
2017-08-28T13:41:08.488Z,9.60
2017-08-28T13:43:35.145Z,10.53
2017-08-28T13:46:01.729Z,9.53
2017-08-28T13:48:28.305Z,14.40
2017-08-28T13:50:54.901Z,13.30
2017-08-28T13:53:21.489Z,11.47
2017-08-28T13:55:48.066Z,9.37
2017-08-28T13:58:14.648Z,12.53
2017-08-28T14:00:41.236Z,9.53
2017-08-28T14:03:07.924Z,13.13
2017-08-28T14:05:34.503Z,12.93
2017-08-28T14:08:02.882Z,10.40
2017-08-28T14:10:29.448Z,9.57
2017-08-28T14:12:56.041Z,12.30
2017-08-28T14:15:22.632Z,10.17
2017-08-28T14:17:49.221Z,9.60
2017-08-28T14:20:15.792Z,9.73
2017-08-28T14:22:42.380Z,13.23
2017-08-28T14:25:08.953Z,11.20
2017-08-28T14:27:35.528Z,11.50
2017-08-28T14:30:02.113Z,9.03
2017-08-28T14:32:28.688Z,10.63
2017-08-28T14:34:55.264Z,10.57
2017-08-28T14:37:21.861Z,9.90
2017-08-28T14:39:48.437Z,9.37
2017-08-28T14:42:15.017Z,11.60
2017-08-28T14:44:41.616Z,12.53
2017-08-28T14:47:08.255Z,12.00
2017-08-28T14:49:34.820Z,12.07
2017-08-28T14:52:01.416Z,10.50
2017-08-28T14:54:27.993Z,10.17
2017-08-28T14:56:54.568Z,16.53
2017-08-28T14:59:21.169Z,12.23
2017-08-28T15:01:47.748Z,12.97
2017-08-28T15:04:14.332Z,10.70
2017-08-28T15:06:40.920Z,10.83
2017-08-28T15:09:07.505Z,12.43
2017-08-28T15:11:34.084Z,11.90
2017-08-28T15:14:00.702Z,11.97
2017-08-28T15:16:27.268Z,12.93
2017-08-28T15:18:53.846Z,9.87
2017-08-28T15:21:20.473Z,11.23
2017-08-28T15:23:47.052Z,13.40
2017-08-28T15:26:13.637Z,10.50
2017-08-28T15:28:40.233Z,13.47
2017-08-28T15:31:06.808Z,11.50
2017-08-28T15:33:33.397Z,11.40
2017-08-28T15:36:00.139Z,11.40
2017-08-28T15:38:26.752Z,12.20
2017-08-28T15:40:53.344Z,12.93
2017-08-28T15:43:19.943Z,11.50
2017-08-28T15:45:46.516Z,13.10
2017-08-28T15:48:13.101Z,11.57
2017-08-28T15:50:39.693Z,12.70
2017-08-28T15:53:06.265Z,12.93
2017-08-28T15:55:32.840Z,13.13
2017-08-28T15:57:59.428Z,11.33
2017-08-28T16:00:26.013Z,11.40
2017-08-28T16:02:52.593Z,11.60
2017-08-28T16:05:19.193Z,11.80
2017-08-28T16:07:45.776Z,11.87
2017-08-28T16:10:12.353Z,12.33
2017-08-28T16:12:38.944Z,12.73
2017-08-28T16:15:05.537Z,13.20
2017-08-28T16:17:32.108Z,12.00
2017-08-28T16:19:58.697Z,11.13
2017-08-28T16:22:25.293Z,11.70
2017-08-28T16:24:51.861Z,14.97
2017-08-28T16:27:18.461Z,12.50
2017-08-28T16:29:48.333Z,12.23
2017-08-28T16:32:14.909Z,13.00
2017-08-28T16:34:41.505Z,11.90
2017-08-28T16:37:08.088Z,12.03
2017-08-28T16:39:34.669Z,11.87
2017-08-28T16:42:01.261Z,15.03
2017-08-28T16:44:27.847Z,13.00
2017-08-28T16:46:54.419Z,14.60
2017-08-28T16:49:21.021Z,12.10
2017-08-28T16:51:47.600Z,13.60
2017-08-28T16:54:14.184Z,11.80
2017-08-28T16:56:40.780Z,14.10
2017-08-28T16:59:07.364Z,12.87
2017-08-28T17:01:33.941Z,13.40
2017-08-28T17:04:00.545Z,13.13
2017-08-28T17:06:27.129Z,13.20
2017-08-28T17:08:53.725Z,16.47
2017-08-28T17:11:20.312Z,14.60
2017-08-28T17:13:46.905Z,12.70
2017-08-28T17:16:13.491Z,13.70
2017-08-28T17:18:40.105Z,12.73
2017-08-28T17:21:06.694Z,12.87
2017-08-28T17:23:39.060Z,14.43
2017-08-28T17:26:05.665Z,15.80
2017-08-28T17:28:32.252Z,17.67
2017-08-28T17:30:58.860Z,13.47
2017-08-28T17:33:25.463Z,13.40
2017-08-28T17:35:52.046Z,22.10
2017-08-28T17:38:18.624Z,13.43
2017-08-28T17:40:45.287Z,19.00
2017-08-28T17:43:11.853Z,13.63
2017-08-28T17:45:38.433Z,13.40
2017-08-28T17:48:05.032Z,13.67
2017-08-28T17:50:31.612Z,13.13
2017-08-28T17:52:58.224Z,14.23
2017-08-28T17:55:24.825Z,13.30
2017-08-28T17:57:51.405Z,13.73
2017-08-28T18:00:17.997Z,13.40
2017-08-28T18:02:44.597Z,13.50
2017-08-28T18:05:11.177Z,14.10
2017-08-28T18:07:37.756Z,21.07
2017-08-28T18:10:04.365Z,14.13
2017-08-28T18:12:41.257Z,14.50
2017-08-28T18:15:07.866Z,14.73
2017-08-28T18:17:34.446Z,16.47
2017-08-28T18:20:01.027Z,14.57
2017-08-28T18:22:27.630Z,14.30
2017-08-28T18:24:54.212Z,15.60
2017-08-28T18:27:20.798Z,13.40
2017-08-28T18:29:47.542Z,13.80
2017-08-28T18:32:14.145Z,15.97
2017-08-28T18:34:50.638Z,17.80
2017-08-28T18:37:17.201Z,16.07
2017-08-28T18:39:43.784Z,15.80
2017-08-28T18:42:10.378Z,19.67
2017-08-28T18:44:47.013Z,15.97
2017-08-28T18:47:13.600Z,19.80
2017-08-28T18:49:40.172Z,16.43
2017-08-28T18:52:06.761Z,15.83
2017-08-28T18:54:42.956Z,17.90
2017-08-28T18:57:09.556Z,18.33
2017-08-28T18:59:36.128Z,14.73
2017-08-28T19:02:02.743Z,15.70
2017-08-28T19:04:39.696Z,18.80
2017-08-28T19:07:06.427Z,14.30
2017-08-28T19:09:33.122Z,15.10
2017-08-28T19:12:05.787Z,16.80
2017-08-28T19:14:35.697Z,19.20
2017-08-28T19:17:03.080Z,19.30
2017-08-28T19:19:29.793Z,15.90
2017-08-28T19:21:56.369Z,16.93
2017-08-28T19:24:23.054Z,18.33
2017-08-28T19:26:56.509Z,15.23
2017-08-28T19:29:23.785Z,16.80
2017-08-28T19:31:51.145Z,15.93
2017-08-28T19:34:29.948Z,18.17
2017-08-28T19:36:56.540Z,22.00
2017-08-28T19:39:23.155Z,15.20
2017-08-28T19:41:49.738Z,15.63
2017-08-28T19:44:16.366Z,18.70
2017-08-28T19:46:42.942Z,14.03
2017-08-28T19:49:09.568Z,18.10
2017-08-28T19:51:36.140Z,17.03
2017-08-28T19:54:02.729Z,16.07
2017-08-28T19:56:29.530Z,15.23
2017-08-28T19:58:56.117Z,15.43
2017-08-28T20:01:22.702Z,26.77
2017-08-28T20:03:49.312Z,15.10
2017-08-28T20:06:18.856Z,21.63
2017-08-28T20:08:48.461Z,17.93
2017-08-28T20:11:15.082Z,15.97
2017-08-28T20:13:41.721Z,14.67
2017-08-28T20:16:08.316Z,16.13
2017-08-28T20:18:34.895Z,14.20
2017-08-28T20:21:08.068Z,19.33
2017-08-28T20:23:34.668Z,20.63
2017-08-28T20:26:08.057Z,18.57
2017-08-28T20:28:34.645Z,15.13
2017-08-28T20:31:07.408Z,16.47
2017-08-28T20:33:34.193Z,16.57
2017-08-28T20:36:07.929Z,16.60
2017-08-28T20:38:44.546Z,15.50
2017-08-28T20:41:14.468Z,17.53
2017-08-28T20:43:47.080Z,17.73
2017-08-28T20:46:14.876Z,15.10
2017-08-28T20:48:44.903Z,14.77
2017-08-28T20:51:11.578Z,16.33
2017-08-28T20:53:45.817Z,21.87
2017-08-28T20:56:12.603Z,18.30
2017-08-28T20:58:39.173Z,17.20
2017-08-28T21:01:05.780Z,17.83
2017-08-28T21:03:32.360Z,16.27
2017-08-28T21:05:58.962Z,15.70
2017-08-28T21:08:25.704Z,15.53
2017-08-28T21:10:52.288Z,14.87
2017-08-28T21:13:18.896Z,16.93
2017-08-28T21:15:45.508Z,16.57
2017-08-28T21:18:12.093Z,19.73
2017-08-28T21:20:38.671Z,16.30
2017-08-28T21:23:05.264Z,15.10
2017-08-28T21:25:31.849Z,14.97
2017-08-28T21:27:58.438Z,14.87
2017-08-28T21:30:25.070Z,18.00
2017-08-28T21:32:51.689Z,20.30
2017-08-28T21:35:18.270Z,19.10
2017-08-28T21:37:44.857Z,15.77
2017-08-28T21:40:11.437Z,14.70
2017-08-28T21:42:38.025Z,17.10
2017-08-28T21:45:04.624Z,15.63
2017-08-28T21:47:31.197Z,15.80
2017-08-28T21:49:57.784Z,17.10
2017-08-28T21:52:24.382Z,15.27
2017-08-28T21:54:50.969Z,16.20
2017-08-28T21:57:17.548Z,15.33
2017-08-28T21:59:44.149Z,15.30
2017-08-28T22:02:10.732Z,16.00
2017-08-28T22:04:37.318Z,15.73
2017-08-28T22:07:03.912Z,20.30
2017-08-28T22:09:30.493Z,20.17
2017-08-28T22:11:57.149Z,16.20
2017-08-28T22:14:23.740Z,15.50
2017-08-28T22:16:50.316Z,15.90
2017-08-28T22:19:16.908Z,21.53
2017-08-28T22:21:43.518Z,25.50
2017-08-28T22:24:10.101Z,19.73
2017-08-28T22:26:36.685Z,16.03
2017-08-28T22:29:03.312Z,16.20
2017-08-28T22:31:29.908Z,16.93
2017-08-28T22:33:56.488Z,20.13
2017-08-28T22:36:23.083Z,16.43
2017-08-28T22:38:49.662Z,15.77
2017-08-28T22:41:16.247Z,18.00
2017-08-28T22:43:42.844Z,20.30
2017-08-28T22:46:09.440Z,16.40
2017-08-28T22:48:36.009Z,14.97
2017-08-28T22:51:02.604Z,16.77
2017-08-28T22:53:29.301Z,13.90
2017-08-28T22:55:55.884Z,17.30
2017-08-28T22:58:22.476Z,16.80
2017-08-28T23:00:49.076Z,15.37
2017-08-28T23:03:15.647Z,14.30
2017-08-28T23:05:42.244Z,14.73
2017-08-28T23:08:08.824Z,16.70
2017-08-28T23:10:35.409Z,24.20
2017-08-28T23:13:02.012Z,17.63
2017-08-28T23:15:28.588Z,14.97
2017-08-28T23:17:55.175Z,16.27
2017-08-28T23:20:21.785Z,19.43
2017-08-28T23:22:48.381Z,17.30
2017-08-28T23:25:14.961Z,16.03
2017-08-28T23:27:41.669Z,14.20
2017-08-28T23:30:08.228Z,16.07
2017-08-28T23:32:34.812Z,16.83
2017-08-28T23:35:01.405Z,19.20
2017-08-28T23:37:27.987Z,23.80
2017-08-28T23:39:54.574Z,17.67
2017-08-28T23:42:21.173Z,15.93
2017-08-28T23:44:47.753Z,14.60
2017-08-28T23:47:14.332Z,15.03
2017-08-28T23:49:40.928Z,13.97
2017-08-28T23:52:07.513Z,16.07
2017-08-28T23:54:34.094Z,13.80
2017-08-28T23:57:00.688Z,14.80
2017-08-28T23:59:27.287Z,17.83
